CPA251 VHHH-EGLL
Flight info
| Callsign | CPA251 |
|---|---|
| Flight time | N/A |
| Altitude | 30100 |
| Route | BEKOL1X/07R BEKOL A461 SHL W22 TEPID W24 OSNOV G586 QP B330 ELKAL W179 WLY/K0941S0980 W179 IGNAK/K0941S0950 W179 WFX/K0935S0980 W179 OMBON W195 VIDEK/K0933S0950 W195 LAXAL/K0928S0980 W195 IDOPA W197 ANDIM B215 IBANO G470 AKLAS W192 FKG A368 SALMO/K0902S1040 A368 SARIN/K0900F340 N161 GASBI/N0489F360 N161 LEYLA T916 MATAL DCT REBLO UR317 TBN UM11 CRM UL746 ODERO DCT OPT DCT TEGRI DCT GAZDA/N0484F380 DCT ARSIN DCT PEROL DCT RENKA DCT INBED DCT BOMBI DCT DENUT L608 LOGAN |
| Aircraft | B77W/H-SDE1E2E3FGHIJ2J3J4J5M1RWXY/LB1D1 |
Departure
| Time | N/A |
|---|---|
| Airport | Hong Kong International Airport (VHHH) |
Arrival
| Time | 2026-05-07 16:59 |
|---|---|
| Airport | London Heathrow Airport (EGLL) |
| Time | Latitude | Longitude | Altitude | Speed | Heading |
|---|---|---|---|---|---|
| 2026-05-07 16:26 | 50.84165 | 5.52160 | 38099 ft | 464 kts | 288° |
| 2026-05-07 16:27 | 50.94700 | 5.03996 | 38174 ft | 475 kts | 287° |
| 2026-05-07 16:27 | 50.97336 | 4.91770 | 38067 ft | 477 kts | 287° |
| 2026-05-07 16:28 | 51.09375 | 4.35037 | 38056 ft | 472 kts | 287° |
| 2026-05-07 16:28 | 51.24313 | 3.63950 | 38045 ft | 472 kts | 294° |
| 2026-05-07 16:29 | 51.43378 | 2.99250 | 38086 ft | 470 kts | 289° |
| 2026-05-07 16:29 | 51.48799 | 2.76077 | 38178 ft | 467 kts | 289° |
| 2026-05-07 16:29 | 51.49931 | 2.71178 | 36986 ft | 468 kts | 289° |
| 2026-05-07 16:30 | 51.51059 | 2.66286 | 38240 ft | 467 kts | 288° |
| 2026-05-07 16:30 | 51.53320 | 2.56456 | 38105 ft | 474 kts | 288° |
| 2026-05-07 16:31 | 51.55603 | 2.46491 | 38087 ft | 475 kts | 288° |
| 2026-05-07 16:31 | 51.56747 | 2.41449 | 37433 ft | 485 kts | 288° |
| 2026-05-07 16:31 | 51.57887 | 2.36410 | 36871 ft | 482 kts | 288° |
| 2026-05-07 16:31 | 51.59036 | 2.31345 | 36011 ft | 482 kts | 288° |
| 2026-05-07 16:32 | 51.60187 | 2.26292 | 35190 ft | 481 kts | 288° |
| 2026-05-07 16:32 | 51.61335 | 2.21246 | 34335 ft | 480 kts | 288° |
| 2026-05-07 16:32 | 51.62484 | 2.16190 | 33372 ft | 479 kts | 288° |
| 2026-05-07 16:32 | 51.63624 | 2.11147 | 32358 ft | 479 kts | 288° |
| 2026-05-07 16:33 | 51.64763 | 2.06103 | 31401 ft | 478 kts | 288° |
| 2026-05-07 16:33 | 51.65901 | 2.01059 | 30472 ft | 477 kts | 288° |
| 2026-05-07 16:33 | 51.67009 | 1.96140 | 29774 ft | 470 kts | 288° |
| 2026-05-07 16:33 | 51.68113 | 1.91228 | 29052 ft | 463 kts | 288° |
| 2026-05-07 16:34 | 51.69201 | 1.86377 | 28394 ft | 456 kts | 288° |
| 2026-05-07 16:34 | 51.70269 | 1.81598 | 27748 ft | 450 kts | 288° |
| 2026-05-07 16:34 | 51.71321 | 1.76882 | 27123 ft | 444 kts | 288° |
| 2026-05-07 16:34 | 51.72364 | 1.72198 | 26484 ft | 439 kts | 288° |
| 2026-05-07 16:35 | 51.73375 | 1.67645 | 25879 ft | 435 kts | 288° |
| 2026-05-07 16:35 | 51.74356 | 1.63067 | 25261 ft | 427 kts | 284° |
| 2026-05-07 16:35 | 51.74761 | 1.58359 | 24636 ft | 421 kts | 266° |
| 2026-05-07 16:35 | 51.74392 | 1.53717 | 24063 ft | 416 kts | 261° |
| 2026-05-07 16:36 | 51.74015 | 1.49105 | 23420 ft | 422 kts | 262° |
| 2026-05-07 16:36 | 51.73686 | 1.44375 | 22714 ft | 421 kts | 263° |
| 2026-05-07 16:36 | 51.73382 | 1.39690 | 22061 ft | 417 kts | 263° |
| 2026-05-07 16:36 | 51.73088 | 1.35086 | 21449 ft | 413 kts | 263° |
| 2026-05-07 16:37 | 51.72790 | 1.30488 | 20822 ft | 409 kts | 263° |
| 2026-05-07 16:37 | 51.72491 | 1.25941 | 20222 ft | 406 kts | 263° |
| 2026-05-07 16:37 | 51.72191 | 1.21426 | 19625 ft | 403 kts | 263° |
| 2026-05-07 16:37 | 51.71889 | 1.16937 | 19039 ft | 400 kts | 263° |
| 2026-05-07 16:38 | 51.71587 | 1.12482 | 18452 ft | 398 kts | 263° |
| 2026-05-07 16:38 | 51.71289 | 1.08111 | 17805 ft | 396 kts | 263° |
| 2026-05-07 16:38 | 51.70987 | 1.03702 | 17180 ft | 393 kts | 263° |
| 2026-05-07 16:38 | 51.70687 | 0.99338 | 16594 ft | 389 kts | 262° |
| 2026-05-07 16:39 | 51.70387 | 0.95005 | 16013 ft | 386 kts | 262° |
| 2026-05-07 16:39 | 51.70090 | 0.90725 | 15553 ft | 381 kts | 262° |
| 2026-05-07 16:39 | 51.69800 | 0.86562 | 15116 ft | 377 kts | 262° |
| 2026-05-07 16:39 | 51.69506 | 0.82362 | 14689 ft | 375 kts | 262° |
| 2026-05-07 16:40 | 51.69213 | 0.78173 | 14252 ft | 375 kts | 261° |
| 2026-05-07 16:40 | 51.68917 | 0.73981 | 13807 ft | 376 kts | 261° |
| 2026-05-07 16:40 | 51.68623 | 0.69835 | 13358 ft | 375 kts | 261° |
| 2026-05-07 16:40 | 51.68325 | 0.65666 | 12877 ft | 371 kts | 262° |
| 2026-05-07 16:41 | 51.68031 | 0.61566 | 12419 ft | 365 kts | 262° |
| 2026-05-07 16:41 | 51.67741 | 0.57518 | 11976 ft | 360 kts | 261° |
| 2026-05-07 16:41 | 51.67453 | 0.53546 | 11551 ft | 355 kts | 261° |
| 2026-05-07 16:41 | 51.67170 | 0.49662 | 11144 ft | 350 kts | 261° |
| 2026-05-07 16:42 | 51.66887 | 0.45794 | 10809 ft | 343 kts | 262° |
| 2026-05-07 16:42 | 51.66610 | 0.42025 | 10599 ft | 333 kts | 262° |
| 2026-05-07 16:42 | 51.66343 | 0.38396 | 10504 ft | 319 kts | 261° |
| 2026-05-07 16:42 | 51.66085 | 0.34903 | 10422 ft | 307 kts | 261° |
| 2026-05-07 16:43 | 51.65838 | 0.31587 | 10336 ft | 296 kts | 262° |
| 2026-05-07 16:43 | 51.65596 | 0.28351 | 10191 ft | 287 kts | 261° |
| 2026-05-07 16:43 | 51.65359 | 0.25182 | 9965 ft | 282 kts | 262° |
| 2026-05-07 16:43 | 51.65129 | 0.22109 | 9878 ft | 271 kts | 261° |
| 2026-05-07 16:44 | 51.64905 | 0.19150 | 9787 ft | 260 kts | 261° |
| 2026-05-07 16:44 | 51.64689 | 0.16298 | 9635 ft | 252 kts | 261° |
| 2026-05-07 16:44 | 51.64499 | 0.13569 | 9437 ft | 245 kts | 262° |
| 2026-05-07 16:44 | 51.64347 | 0.10848 | 9129 ft | 242 kts | 263° |
| 2026-05-07 16:45 | 51.64201 | 0.08138 | 8787 ft | 241 kts | 263° |
| 2026-05-07 16:45 | 51.64056 | 0.05442 | 8449 ft | 241 kts | 263° |
| 2026-05-07 16:45 | 51.63891 | 0.02805 | 8166 ft | 237 kts | 262° |
| 2026-05-07 16:45 | 51.63687 | 0.00217 | 8096 ft | 229 kts | 261° |
| 2026-05-07 16:46 | 51.63474 | -0.02370 | 8080 ft | 239 kts | 261° |
| 2026-05-07 16:46 | 51.63245 | -0.05074 | 8086 ft | 247 kts | 261° |
| 2026-05-07 16:46 | 51.63008 | -0.07820 | 8083 ft | 246 kts | 261° |
| 2026-05-07 16:46 | 51.62777 | -0.10504 | 8055 ft | 243 kts | 261° |
| 2026-05-07 16:47 | 51.62545 | -0.13182 | 8073 ft | 240 kts | 261° |
| 2026-05-07 16:47 | 51.62316 | -0.15841 | 8069 ft | 238 kts | 261° |
| 2026-05-07 16:47 | 51.62089 | -0.18485 | 8066 ft | 237 kts | 261° |
| 2026-05-07 16:47 | 51.61860 | -0.21140 | 8083 ft | 241 kts | 261° |
| 2026-05-07 16:48 | 51.61627 | -0.23840 | 8092 ft | 245 kts | 261° |
| 2026-05-07 16:48 | 51.61391 | -0.26562 | 8075 ft | 244 kts | 261° |
| 2026-05-07 16:48 | 51.61235 | -0.28347 | 8053 ft | 242 kts | 261° |
| 2026-05-07 16:48 | 51.61001 | -0.31033 | 7901 ft | 242 kts | 261° |
| 2026-05-07 16:49 | 51.60767 | -0.33706 | 7686 ft | 240 kts | 261° |
| 2026-05-07 16:49 | 51.60535 | -0.36363 | 7395 ft | 239 kts | 261° |
| 2026-05-07 16:49 | 51.60302 | -0.39012 | 7130 ft | 236 kts | 261° |
| 2026-05-07 16:49 | 51.60078 | -0.41584 | 7085 ft | 232 kts | 261° |
| 2026-05-07 16:50 | 51.59846 | -0.44192 | 7066 ft | 239 kts | 261° |
| 2026-05-07 16:50 | 51.59612 | -0.46826 | 7064 ft | 242 kts | 261° |
| 2026-05-07 16:50 | 51.59373 | -0.49504 | 7060 ft | 241 kts | 261° |
| 2026-05-07 16:50 | 51.59129 | -0.52171 | 7061 ft | 240 kts | 261° |
| 2026-05-07 16:51 | 51.58887 | -0.54832 | 7050 ft | 240 kts | 261° |
| 2026-05-07 16:51 | 51.58648 | -0.57489 | 7040 ft | 240 kts | 261° |
| 2026-05-07 16:51 | 51.58409 | -0.60135 | 7036 ft | 238 kts | 261° |
| 2026-05-07 16:51 | 51.58175 | -0.62765 | 6867 ft | 237 kts | 261° |
| 2026-05-07 16:52 | 51.57942 | -0.65355 | 6590 ft | 237 kts | 261° |
| 2026-05-07 16:52 | 51.57701 | -0.67985 | 6233 ft | 238 kts | 261° |
| 2026-05-07 16:52 | 51.57456 | -0.70615 | 5928 ft | 237 kts | 261° |
| 2026-05-07 16:52 | 51.57213 | -0.73218 | 5629 ft | 235 kts | 261° |
| 2026-05-07 16:53 | 51.56909 | -0.75731 | 5479 ft | 222 kts | 248° |
| 2026-05-07 16:53 | 51.56022 | -0.77586 | 5391 ft | 203 kts | 213° |
| 2026-05-07 16:53 | 51.54731 | -0.78245 | 5118 ft | 193 kts | 185° |
| 2026-05-07 16:53 | 51.53393 | -0.78339 | 4745 ft | 191 kts | 181° |
| 2026-05-07 16:54 | 51.52082 | -0.78383 | 4411 ft | 190 kts | 181° |
| 2026-05-07 16:54 | 51.50768 | -0.78420 | 4077 ft | 187 kts | 181° |
| 2026-05-07 16:54 | 51.49478 | -0.78302 | 3686 ft | 185 kts | 163° |
| 2026-05-07 16:54 | 51.48468 | -0.77087 | 3221 ft | 187 kts | 121° |
| 2026-05-07 16:55 | 51.48113 | -0.75086 | 3047 ft | 192 kts | 101° |
| 2026-05-07 16:55 | 51.47916 | -0.72953 | 3017 ft | 193 kts | 97° |
| 2026-05-07 16:55 | 51.47766 | -0.70853 | 2851 ft | 193 kts | 96° |
| 2026-05-07 16:55 | 51.47689 | -0.68706 | 2587 ft | 191 kts | 92° |
| 2026-05-07 16:56 | 51.47683 | -0.66596 | 2360 ft | 187 kts | 92° |
| 2026-05-07 16:56 | 51.47690 | -0.64545 | 2104 ft | 177 kts | 91° |
| 2026-05-07 16:56 | 51.47704 | -0.60822 | 1654 ft | 166 kts | 92° |
| 2026-05-07 16:57 | 51.47710 | -0.58953 | 1413 ft | 165 kts | 92° |
| 2026-05-07 16:57 | 51.47718 | -0.57148 | 1192 ft | 155 kts | 91° |
| 2026-05-07 16:57 | 51.47724 | -0.55483 | 978 ft | 146 kts | 92° |
| 2026-05-07 16:57 | 51.47727 | -0.53874 | 793 ft | 144 kts | 91° |
| 2026-05-07 16:58 | 51.47735 | -0.52302 | 566 ft | 138 kts | 90° |
| 2026-05-07 16:58 | 51.47745 | -0.50805 | 412 ft | 134 kts | 93° |
| 2026-05-07 16:58 | 51.47747 | -0.49303 | 240 ft | 137 kts | 92° |
| 2026-05-07 16:58 | 51.47755 | -0.47776 | 100 ft | 134 kts | 91° |
| 2026-05-07 16:59 | 51.47757 | -0.46475 | 97 ft | 92 kts | 90° |
| 2026-05-07 16:59 | 51.47759 | -0.45745 | 92 ft | 38 kts | 90° |
| 2026-05-07 16:59 | 51.47730 | -0.45494 | 94 ft | 15 kts | 142° |
| 2026-05-07 16:59 | 51.47652 | -0.45469 | 91 ft | 10 kts | 177° |
| 2026-05-07 17:00 | 51.47580 | -0.45463 | 93 ft | 10 kts | 178° |
| 2026-05-07 17:00 | 51.47520 | -0.45511 | 93 ft | 11 kts | 238° |
| 2026-05-07 17:00 | 51.47508 | -0.45628 | 94 ft | 11 kts | 270° |
| 2026-05-07 17:00 | 51.47512 | -0.45750 | 94 ft | 11 kts | 274° |
| 2026-05-07 17:01 | 51.47517 | -0.45874 | 91 ft | 11 kts | 271° |
| 2026-05-07 17:01 | 51.47518 | -0.46002 | 91 ft | 12 kts | 270° |
| 2026-05-07 17:01 | 51.47517 | -0.46134 | 91 ft | 12 kts | 269° |
| 2026-05-07 17:01 | 51.47516 | -0.46269 | 91 ft | 12 kts | 269° |
| 2026-05-07 17:02 | 51.47516 | -0.46405 | 91 ft | 12 kts | 270° |
| 2026-05-07 17:02 | 51.47516 | -0.46540 | 91 ft | 12 kts | 270° |
| 2026-05-07 17:02 | 51.47515 | -0.46676 | 91 ft | 12 kts | 267° |
| 2026-05-07 17:02 | 51.47468 | -0.46748 | 93 ft | 8 kts | 180° |
| 2026-05-07 17:03 | 51.47432 | -0.46699 | 95 ft | 7 kts | 128° |
| 2026-05-07 17:03 | 51.47406 | -0.46631 | 95 ft | 8 kts | 120° |
| 2026-05-07 17:03 | 51.47394 | -0.46597 | 95 ft | 1 kts | 120° |
| 2026-05-07 17:03 | 51.47393 | -0.46593 | 95 ft | 0 kts | 120° |